createdAt,value
2023-05-05T00:01:57.944Z,10.45
2023-05-05T00:04:25.322Z,9.23
2023-05-05T00:06:52.622Z,11.82
2023-05-05T00:09:19.579Z,8.13
2023-05-05T00:11:46.839Z,10.10
2023-05-05T00:14:14.082Z,9.32
2023-05-05T00:16:41.465Z,10.63
2023-05-05T00:19:08.432Z,8.82
2023-05-05T00:21:35.642Z,10.02
2023-05-05T00:24:02.904Z,8.03
2023-05-05T00:26:30.150Z,8.40
2023-05-05T00:28:57.393Z,7.18
2023-05-05T00:31:24.720Z,9.15
2023-05-05T00:33:51.674Z,10.23
2023-05-05T00:36:19.011Z,14.47
2023-05-05T00:38:45.957Z,13.98
2023-05-05T00:41:13.593Z,18.63
2023-05-05T00:43:40.538Z,15.52
2023-05-05T00:46:27.025Z,16.10
2023-05-05T00:48:55.000Z,13.23
2023-05-05T00:51:23.101Z,14.85
2023-05-05T00:53:50.593Z,15.15
2023-05-05T00:56:20.102Z,10.93
2023-05-05T00:58:47.083Z,9.52
2023-05-05T01:01:15.687Z,9.70
2023-05-05T01:03:42.789Z,12.82
2023-05-05T01:06:22.160Z,15.13
2023-05-05T01:09:21.204Z,14.48
2023-05-05T01:11:58.653Z,15.45
2023-05-05T01:14:39.872Z,13.10
2023-05-05T01:17:17.707Z,11.32
2023-05-05T01:19:51.326Z,10.52
2023-05-05T01:22:22.432Z,10.60
2023-05-05T01:24:57.132Z,8.45
2023-05-05T01:28:03.361Z,9.30
2023-05-05T01:30:56.472Z,9.40
2023-05-05T01:33:27.650Z,11.10
2023-05-05T01:36:03.318Z,9.80
2023-05-05T01:38:38.148Z,10.57
2023-05-05T01:41:14.762Z,8.00
2023-05-05T01:43:46.347Z,10.88
2023-05-05T01:46:15.330Z,10.30
2023-05-05T01:48:44.306Z,9.10
2023-05-05T01:51:13.314Z,8.55
2023-05-05T01:53:41.890Z,7.83
2023-05-05T01:56:11.490Z,8.93
2023-05-05T01:58:39.758Z,8.82
2023-05-05T02:01:06.903Z,9.15
2023-05-05T02:03:37.719Z,11.30
2023-05-05T02:06:07.525Z,16.33
2023-05-05T02:08:37.204Z,15.88
2023-05-05T02:11:05.247Z,16.23
2023-05-05T02:13:32.982Z,14.80
2023-05-05T02:16:00.624Z,13.07
2023-05-05T02:18:28.810Z,13.67
2023-05-05T02:20:55.871Z,15.38
2023-05-05T02:23:23.479Z,12.82
2023-05-05T02:25:54.001Z,15.25
2023-05-05T02:28:50.765Z,17.27
2023-05-05T02:31:20.998Z,18.87
2023-05-05T02:33:51.126Z,16.05
2023-05-05T02:36:22.142Z,12.23
2023-05-05T02:38:59.288Z,12.15
2023-05-05T02:41:30.747Z,14.98
2023-05-05T02:44:03.378Z,13.83
2023-05-05T02:46:32.720Z,14.98
2023-05-05T02:49:00.154Z,14.80
2023-05-05T02:51:27.888Z,16.95
2023-05-05T02:53:57.391Z,14.13
2023-05-05T02:56:51.258Z,15.63
2023-05-05T02:59:38.416Z,11.40
2023-05-05T03:02:45.929Z,11.40
2023-05-05T03:05:27.306Z,10.02
2023-05-05T03:08:00.337Z,11.10
2023-05-05T03:10:31.271Z,13.47
2023-05-05T03:13:03.312Z,11.63
2023-05-05T03:15:46.126Z,11.65
2023-05-05T03:18:16.615Z,10.50
2023-05-05T03:20:49.230Z,13.02
2023-05-05T03:23:21.143Z,11.93
2023-05-05T03:25:52.160Z,15.82
2023-05-05T03:28:42.000Z,14.30
2023-05-05T03:31:18.825Z,17.58
2023-05-05T03:33:50.338Z,11.70
2023-05-05T03:36:20.113Z,14.53
2023-05-05T03:38:47.705Z,20.52
2023-05-05T03:41:15.165Z,16.88
2023-05-05T03:43:42.176Z,14.82
2023-05-05T03:46:10.481Z,15.60
2023-05-05T03:48:37.789Z,17.47
2023-05-05T03:51:05.210Z,17.10
2023-05-05T03:53:34.893Z,13.35
2023-05-05T03:56:05.941Z,12.15
2023-05-05T03:58:32.993Z,10.23
2023-05-05T04:01:00.340Z,12.33
2023-05-05T04:03:27.580Z,10.55
2023-05-05T04:05:56.116Z,10.13
2023-05-05T04:08:23.176Z,9.73
2023-05-05T04:10:51.875Z,10.07
2023-05-05T04:13:19.768Z,13.30
2023-05-05T04:15:47.994Z,13.48
2023-05-05T04:18:16.476Z,13.00
2023-05-05T04:20:44.048Z,11.77
2023-05-05T04:23:11.688Z,9.90
2023-05-05T04:25:39.697Z,10.32
2023-05-05T04:28:06.766Z,9.87
2023-05-05T04:30:34.189Z,10.18
2023-05-05T04:33:02.071Z,12.10
2023-05-05T04:35:30.130Z,12.02
2023-05-05T04:37:57.897Z,15.63
2023-05-05T04:40:26.520Z,14.87
2023-05-05T04:42:54.647Z,14.02
2023-05-05T04:45:22.420Z,12.63
2023-05-05T04:47:49.898Z,11.15
2023-05-05T04:50:17.673Z,12.70
2023-05-05T04:52:44.707Z,12.23
2023-05-05T04:55:12.273Z,10.05
2023-05-05T04:57:39.360Z,8.98
2023-05-05T05:00:08.082Z,11.85
2023-05-05T05:02:36.054Z,11.55
2023-05-05T05:05:03.886Z,11.13
2023-05-05T05:07:30.797Z,13.43
2023-05-05T05:09:58.568Z,16.25
2023-05-05T05:12:25.583Z,14.20
2023-05-05T05:14:52.850Z,14.57
2023-05-05T05:17:21.029Z,11.87
2023-05-05T05:19:49.379Z,13.02
2023-05-05T05:22:16.356Z,12.43
2023-05-05T05:24:44.533Z,13.70
2023-05-05T05:27:13.357Z,12.25
2023-05-05T05:29:44.268Z,9.87
2023-05-05T05:32:11.514Z,12.85
2023-05-05T05:34:39.144Z,13.63
2023-05-05T05:37:08.188Z,13.90
2023-05-05T05:39:36.660Z,16.20
2023-05-05T05:42:04.120Z,18.17
2023-05-05T05:44:32.975Z,13.57
2023-05-05T05:47:00.156Z,13.27
2023-05-05T05:49:27.632Z,14.52
2023-05-05T05:51:55.673Z,11.60
2023-05-05T05:54:23.395Z,11.03
2023-05-05T05:56:50.442Z,9.98
2023-05-05T05:59:17.720Z,11.38
2023-05-05T06:01:44.736Z,11.57
2023-05-05T06:04:13.453Z,12.77
2023-05-05T06:06:41.614Z,10.20
2023-05-05T06:09:08.950Z,8.70
2023-05-05T06:11:37.214Z,13.23
2023-05-05T06:14:04.518Z,12.88
2023-05-05T06:16:31.677Z,12.00
2023-05-05T06:19:02.469Z,10.90
2023-05-05T06:21:30.003Z,10.93
2023-05-05T06:23:57.282Z,10.35
2023-05-05T06:26:27.131Z,9.02
2023-05-05T06:28:54.424Z,10.30
2023-05-05T06:31:21.444Z,8.13
2023-05-05T06:33:48.725Z,8.38
2023-05-05T06:36:15.668Z,8.75
2023-05-05T06:38:43.013Z,7.80
2023-05-05T06:41:09.992Z,9.38
2023-05-05T06:43:37.402Z,10.10
2023-05-05T06:46:07.952Z,7.82
2023-05-05T06:48:35.208Z,9.52
2023-05-05T06:51:02.935Z,9.02
2023-05-05T06:53:30.280Z,10.98
2023-05-05T06:55:57.251Z,12.07
2023-05-05T06:58:24.544Z,10.68
2023-05-05T07:00:52.024Z,9.52
2023-05-05T07:03:19.625Z,23.95
2023-05-05T07:05:46.934Z,42.22
2023-05-05T07:08:14.199Z,38.20
2023-05-05T07:10:41.185Z,31.20
2023-05-05T07:13:08.622Z,32.15
2023-05-05T07:15:36.223Z,43.60
2023-05-05T07:18:03.737Z,32.65
2023-05-05T07:20:30.684Z,22.00
2023-05-05T07:22:57.998Z,24.55
2023-05-05T07:25:24.953Z,27.63
2023-05-05T07:27:52.350Z,22.60
2023-05-05T07:30:19.857Z,23.17
2023-05-05T07:32:47.600Z,16.17
2023-05-05T07:35:14.672Z,20.40
2023-05-05T07:37:42.294Z,23.05
2023-05-05T07:40:10.147Z,14.52
2023-05-05T07:42:38.037Z,12.90
2023-05-05T07:45:06.239Z,11.70
2023-05-05T07:47:33.631Z,11.55
2023-05-05T07:50:01.426Z,20.70
2023-05-05T07:52:44.202Z,16.35
2023-05-05T07:55:15.282Z,13.60
2023-05-05T07:57:42.622Z,9.90
2023-05-05T08:00:11.140Z,6.22
2023-05-05T08:02:42.062Z,7.50
2023-05-05T08:05:09.767Z,8.20
2023-05-05T08:07:41.692Z,7.47
2023-05-05T08:10:12.489Z,7.40
2023-05-05T08:12:40.717Z,6.70
2023-05-05T08:15:08.823Z,8.23
2023-05-05T08:18:02.936Z,9.55
2023-05-05T08:20:30.145Z,7.28
2023-05-05T08:22:57.493Z,6.07
2023-05-05T08:25:27.073Z,5.13
2023-05-05T08:27:54.670Z,7.63
2023-05-05T08:30:22.467Z,6.47
2023-05-05T08:32:49.818Z,7.32
2023-05-05T08:35:16.874Z,5.87
2023-05-05T08:37:44.201Z,8.57
2023-05-05T08:40:16.133Z,10.38
2023-05-05T08:42:45.743Z,8.27
2023-05-05T08:45:12.983Z,7.80
2023-05-05T08:47:40.493Z,8.33
2023-05-05T08:50:10.644Z,7.95
2023-05-05T08:52:44.730Z,7.55
2023-05-05T08:55:24.330Z,10.98
2023-05-05T08:57:54.770Z,7.57
2023-05-05T09:00:22.388Z,7.60
2023-05-05T09:02:50.257Z,5.97
2023-05-05T09:05:18.487Z,4.43
2023-05-05T09:07:47.537Z,4.18
2023-05-05T09:10:14.762Z,4.43
2023-05-05T09:12:42.358Z,7.27
2023-05-05T09:15:11.783Z,13.75
2023-05-05T09:17:39.924Z,8.68
2023-05-05T09:20:10.116Z,7.10
2023-05-05T09:22:45.160Z,6.65
2023-05-05T09:25:14.630Z,7.33
2023-05-05T09:27:48.117Z,10.07
2023-05-05T09:30:24.524Z,6.35
2023-05-05T09:32:55.576Z,5.55
2023-05-05T09:35:23.741Z,8.98
2023-05-05T09:37:51.076Z,6.03
2023-05-05T09:40:20.425Z,4.43
2023-05-05T09:42:48.047Z,5.60
2023-05-05T09:45:17.771Z,6.00
2023-05-05T09:47:46.646Z,8.10
2023-05-05T09:50:16.301Z,9.13
2023-05-05T09:52:54.009Z,7.97
2023-05-05T09:55:21.105Z,8.00
2023-05-05T09:57:48.401Z,7.57
2023-05-05T10:00:16.061Z,7.00
2023-05-05T10:02:43.634Z,5.80
2023-05-05T10:05:15.849Z,7.50
2023-05-05T10:07:46.209Z,5.63
2023-05-05T10:10:17.437Z,5.38
2023-05-05T10:12:47.787Z,6.75
2023-05-05T10:15:16.232Z,6.57
2023-05-05T10:20:19.452Z,5.78
2023-05-05T10:22:53.568Z,4.20
2023-05-05T10:25:29.172Z,5.05
2023-05-05T10:27:59.800Z,5.10
2023-05-05T10:30:30.676Z,5.45
2023-05-05T10:35:43.785Z,4.03
2023-05-05T10:38:13.331Z,4.85
2023-05-05T10:40:45.607Z,5.30
2023-05-05T10:43:15.985Z,12.07
2023-05-05T10:45:43.843Z,5.50
2023-05-05T10:48:18.919Z,5.53
2023-05-05T10:50:51.683Z,4.75
2023-05-05T10:53:41.454Z,6.23
2023-05-05T10:56:31.616Z,5.32
2023-05-05T10:59:00.468Z,6.47
2023-05-05T11:01:35.652Z,6.43
2023-05-05T11:04:24.758Z,6.32
2023-05-05T11:07:12.675Z,6.50
2023-05-05T11:09:56.538Z,5.78
2023-05-05T11:12:23.774Z,4.32
2023-05-05T11:15:22.291Z,5.57
2023-05-05T11:17:49.568Z,6.55
2023-05-05T11:20:17.125Z,7.23
2023-05-05T11:23:04.283Z,11.70
2023-05-05T11:25:34.816Z,4.70
2023-05-05T11:28:06.892Z,6.10
2023-05-05T11:30:34.830Z,4.75
2023-05-05T11:33:23.670Z,4.50
2023-05-05T11:35:55.566Z,5.35
2023-05-05T11:38:28.728Z,7.15
2023-05-05T11:41:04.620Z,5.45
2023-05-05T11:43:31.641Z,6.40
2023-05-05T11:46:15.440Z,5.83
2023-05-05T11:48:46.397Z,4.50
2023-05-05T11:51:15.259Z,5.22
2023-05-05T11:53:49.290Z,4.82
2023-05-05T11:56:21.995Z,5.63
2023-05-05T11:58:49.821Z,5.03
2023-05-05T12:01:17.673Z,6.40
2023-05-05T12:03:46.058Z,4.57
2023-05-05T12:06:13.645Z,5.57
2023-05-05T12:08:41.439Z,7.28
2023-05-05T12:11:10.836Z,5.80
2023-05-05T12:13:38.033Z,4.95
2023-05-05T12:16:13.298Z,5.47
2023-05-05T12:18:41.395Z,6.45
2023-05-05T12:21:19.462Z,9.07
2023-05-05T12:23:46.938Z,7.73
2023-05-05T12:26:31.734Z,7.38
2023-05-05T12:29:00.236Z,5.15
2023-05-05T12:31:35.132Z,5.82
2023-05-05T12:34:03.772Z,5.60
2023-05-05T12:36:31.825Z,6.80
2023-05-05T12:38:58.810Z,4.43
2023-05-05T12:41:26.222Z,4.05
2023-05-05T12:43:59.752Z,5.35
2023-05-05T12:46:29.800Z,7.65
2023-05-05T12:49:04.852Z,6.53
2023-05-05T12:51:33.324Z,6.97
2023-05-05T12:54:04.729Z,6.57
2023-05-05T12:56:34.884Z,4.95
2023-05-05T12:59:09.634Z,5.95
2023-05-05T13:01:47.797Z,5.93
2023-05-05T13:04:15.281Z,8.95
2023-05-05T13:06:44.861Z,4.78
2023-05-05T13:09:30.635Z,5.43
2023-05-05T13:11:58.148Z,7.15
2023-05-05T13:14:25.155Z,9.20
2023-05-05T13:16:53.322Z,6.50
2023-05-05T13:19:20.365Z,6.65
2023-05-05T13:21:47.638Z,6.55
2023-05-05T13:24:28.100Z,7.65
2023-05-05T13:26:59.104Z,5.53
2023-05-05T13:29:30.406Z,5.93
2023-05-05T13:31:58.899Z,6.18
2023-05-05T13:34:25.948Z,5.45
2023-05-05T13:36:53.295Z,5.85
2023-05-05T13:39:20.306Z,7.27
2023-05-05T13:41:47.658Z,5.22
2023-05-05T13:44:14.749Z,6.75
2023-05-05T13:46:43.450Z,5.30
2023-05-05T13:49:10.470Z,5.57
2023-05-05T13:51:39.172Z,5.90
2023-05-05T13:54:07.313Z,5.45
2023-05-05T13:56:34.899Z,6.07
2023-05-05T13:59:02.639Z,4.43
2023-05-05T14:01:30.890Z,4.88
2023-05-05T14:03:58.256Z,4.90
2023-05-05T14:06:26.265Z,5.85
2023-05-05T14:08:53.575Z,4.07
2023-05-05T14:11:21.198Z,5.30
2023-05-05T14:13:48.344Z,5.65
2023-05-05T14:16:15.913Z,4.80
2023-05-05T14:18:42.969Z,5.03
2023-05-05T14:21:10.771Z,4.90
2023-05-05T14:23:37.757Z,6.68
2023-05-05T14:26:05.420Z,4.22
2023-05-05T14:28:32.497Z,5.83
2023-05-05T14:30:59.797Z,6.07
2023-05-05T14:33:26.834Z,4.15
2023-05-05T14:35:54.115Z,7.75
2023-05-05T14:38:21.657Z,3.92
2023-05-05T14:40:49.072Z,4.87
2023-05-05T14:43:16.018Z,6.97
2023-05-05T14:45:44.444Z,5.07
2023-05-05T14:48:11.482Z,4.82
2023-05-05T14:50:40.734Z,4.97
2023-05-05T14:53:07.744Z,5.23
2023-05-05T14:55:34.985Z,5.95
2023-05-05T14:58:02.110Z,5.57
2023-05-05T15:00:29.403Z,8.57
2023-05-05T15:02:56.631Z,4.60
2023-05-05T15:05:23.975Z,4.10
2023-05-05T15:07:51.135Z,6.87
2023-05-05T15:10:21.158Z,4.30
2023-05-05T15:12:51.214Z,6.22
2023-05-05T15:15:18.537Z,8.35
2023-05-05T15:17:45.658Z,14.40
2023-05-05T15:20:13.088Z,5.93
2023-05-05T15:22:40.074Z,5.80
2023-05-05T15:25:12.411Z,4.80
2023-05-05T15:27:39.906Z,4.47
2023-05-05T15:30:08.008Z,4.63
2023-05-05T15:32:35.151Z,4.90
2023-05-05T15:35:02.538Z,4.63
2023-05-05T15:37:29.764Z,5.90
2023-05-05T15:39:57.216Z,5.57
2023-05-05T15:42:24.404Z,7.55
2023-05-05T15:44:52.090Z,6.20
2023-05-05T15:47:19.076Z,7.07
2023-05-05T15:49:46.449Z,6.10
2023-05-05T15:52:14.159Z,6.88
2023-05-05T15:54:41.700Z,6.70
2023-05-05T15:57:08.828Z,8.40
2023-05-05T15:59:36.147Z,7.70
2023-05-05T16:02:03.149Z,6.47
2023-05-05T16:04:30.843Z,5.95
2023-05-05T16:06:58.330Z,6.35
2023-05-05T16:09:25.605Z,4.83
2023-05-05T16:11:55.288Z,6.05
2023-05-05T16:14:22.629Z,5.57
2023-05-05T16:16:49.728Z,8.13
2023-05-05T16:19:18.339Z,4.70
2023-05-05T16:21:45.681Z,3.97
2023-05-05T16:24:16.670Z,4.70
2023-05-05T16:26:44.388Z,4.68
2023-05-05T16:29:12.263Z,6.65
2023-05-05T16:31:39.676Z,4.95
2023-05-05T16:34:07.358Z,7.60
2023-05-05T16:36:34.709Z,5.60
2023-05-05T16:39:01.993Z,6.20
2023-05-05T16:41:29.030Z,6.70
2023-05-05T16:43:56.528Z,6.85
2023-05-05T16:46:23.532Z,5.53
2023-05-05T16:48:51.054Z,6.78
2023-05-05T16:51:18.050Z,5.97
2023-05-05T16:53:46.581Z,6.32
2023-05-05T16:56:14.561Z,7.00
2023-05-05T16:58:41.794Z,5.53
2023-05-05T17:01:08.839Z,5.22
2023-05-05T17:03:36.373Z,9.40
2023-05-05T17:06:03.553Z,4.57
2023-05-05T17:08:30.952Z,4.72
2023-05-05T17:10:58.494Z,3.53
2023-05-05T17:13:25.743Z,4.32
2023-05-05T17:15:52.720Z,4.40
2023-05-05T17:18:21.982Z,4.40
2023-05-05T17:20:49.574Z,4.70
2023-05-05T17:23:16.923Z,4.50
2023-05-05T17:25:43.875Z,4.10
2023-05-05T17:28:11.179Z,3.95
2023-05-05T17:30:38.136Z,3.22
2023-05-05T17:33:05.726Z,4.85
2023-05-05T17:35:33.085Z,3.60
2023-05-05T17:38:00.722Z,5.15
2023-05-05T17:40:27.666Z,6.03
2023-05-05T17:42:55.108Z,4.53
2023-05-05T17:45:22.120Z,6.00
2023-05-05T17:47:49.388Z,4.80
2023-05-05T17:50:16.425Z,5.55
2023-05-05T17:52:45.255Z,5.20
2023-05-05T17:55:12.917Z,6.65
2023-05-05T17:57:40.298Z,4.72
2023-05-05T18:00:07.969Z,6.17
2023-05-05T18:02:41.308Z,5.38
2023-05-05T18:05:09.331Z,6.50
2023-05-05T18:07:38.874Z,9.55
2023-05-05T18:10:10.847Z,5.13
2023-05-05T18:12:38.406Z,5.10
2023-05-05T18:15:06.046Z,4.60
2023-05-05T18:17:33.304Z,7.18
2023-05-05T18:20:00.539Z,4.90
2023-05-05T18:22:27.801Z,6.28
2023-05-05T18:24:59.323Z,4.50
2023-05-05T18:27:28.030Z,6.15
2023-05-05T18:29:55.403Z,5.35
2023-05-05T18:32:22.879Z,6.18
2023-05-05T18:34:50.272Z,5.47
2023-05-05T18:37:17.583Z,5.37
2023-05-05T18:39:45.308Z,5.65
2023-05-05T18:42:13.252Z,4.40
2023-05-05T18:44:40.317Z,6.47
2023-05-05T18:47:08.218Z,5.95
2023-05-05T18:49:35.467Z,9.23
2023-05-05T18:52:02.759Z,10.05
2023-05-05T18:54:29.854Z,7.13
2023-05-05T18:56:57.569Z,6.53
2023-05-05T18:59:24.564Z,8.02
2023-05-05T19:01:52.537Z,9.17
2023-05-05T19:04:30.865Z,9.18
2023-05-05T19:06:59.656Z,15.00
2023-05-05T19:09:26.925Z,14.95
2023-05-05T19:11:54.261Z,11.38
2023-05-05T19:14:22.360Z,11.57
2023-05-05T19:16:49.690Z,9.57
2023-05-05T19:19:17.632Z,8.40
2023-05-05T19:21:44.953Z,10.13
2023-05-05T19:24:12.005Z,8.35
2023-05-05T19:26:39.333Z,8.60
2023-05-05T19:29:06.304Z,6.80
2023-05-05T19:31:33.618Z,6.03
2023-05-05T19:34:02.862Z,4.80
2023-05-05T19:36:33.915Z,5.93
2023-05-05T19:39:02.064Z,5.20
2023-05-05T19:41:31.002Z,4.20
2023-05-05T19:43:57.957Z,5.32
2023-05-05T19:46:26.708Z,6.28
2023-05-05T19:48:53.949Z,7.47
2023-05-05T19:51:21.356Z,6.37
2023-05-05T19:53:48.500Z,6.28
2023-05-05T19:56:17.158Z,6.57
2023-05-05T19:58:57.517Z,7.93
2023-05-05T20:01:25.739Z,5.95
2023-05-05T20:03:54.772Z,5.33
2023-05-05T20:06:23.368Z,6.45
2023-05-05T20:08:51.045Z,8.38
2023-05-05T20:11:18.460Z,11.30
2023-05-05T20:13:45.498Z,7.43
2023-05-05T20:16:12.981Z,8.40
2023-05-05T20:18:40.462Z,7.93
2023-05-05T20:21:07.783Z,7.43
2023-05-05T20:23:34.774Z,7.35
2023-05-05T20:26:02.326Z,6.75
2023-05-05T20:28:31.601Z,5.20
2023-05-05T20:31:00.790Z,5.60
2023-05-05T20:33:29.104Z,5.20
2023-05-05T20:35:56.532Z,4.95
2023-05-05T20:38:23.572Z,6.65
2023-05-05T20:40:52.475Z,5.17
2023-05-05T20:43:19.705Z,5.18
2023-05-05T20:45:46.969Z,5.55
2023-05-05T20:48:13.950Z,4.97
2023-05-05T20:50:41.959Z,6.28
2023-05-05T20:53:10.019Z,4.60
2023-05-05T20:55:37.649Z,7.50
2023-05-05T20:58:07.089Z,5.68
2023-05-05T21:00:34.958Z,6.22
2023-05-05T21:03:03.000Z,5.65
2023-05-05T21:05:31.826Z,7.23
2023-05-05T21:08:00.898Z,5.18
2023-05-05T21:10:35.041Z,6.40
2023-05-05T21:13:02.818Z,5.68
2023-05-05T21:15:30.585Z,6.07
2023-05-05T21:17:57.744Z,6.77
2023-05-05T21:20:25.070Z,5.90
2023-05-05T21:22:51.956Z,7.35
2023-05-05T21:25:20.928Z,10.10
2023-05-05T21:27:49.018Z,12.52
2023-05-05T21:30:17.098Z,8.23
2023-05-05T21:32:44.615Z,10.30
2023-05-05T21:35:12.075Z,9.23
2023-05-05T21:37:39.559Z,9.10
2023-05-05T21:40:11.141Z,12.20
2023-05-05T21:42:38.419Z,8.80
2023-05-05T21:45:06.295Z,6.95
2023-05-05T21:47:33.310Z,7.70
2023-05-05T21:50:00.981Z,9.32
2023-05-05T21:52:27.990Z,9.68
2023-05-05T21:54:55.320Z,8.93
2023-05-05T21:57:22.275Z,11.13
2023-05-05T21:59:49.512Z,7.40
2023-05-05T22:02:16.421Z,8.73
2023-05-05T22:04:46.258Z,15.50
2023-05-05T22:07:13.228Z,17.43
2023-05-05T22:09:40.490Z,19.40
2023-05-05T22:12:07.410Z,22.67
2023-05-05T22:14:34.630Z,22.85
2023-05-05T22:17:01.569Z,16.25
2023-05-05T22:19:28.895Z,13.43
2023-05-05T22:21:57.568Z,11.60
2023-05-05T22:24:24.859Z,15.05
2023-05-05T22:26:51.762Z,12.15
2023-05-05T22:29:18.993Z,16.42
2023-05-05T22:31:45.933Z,18.67
2023-05-05T22:34:13.182Z,18.52
2023-05-05T22:36:40.146Z,12.38
2023-05-05T22:39:07.903Z,9.52
2023-05-05T22:41:34.851Z,9.73
2023-05-05T22:44:02.212Z,10.87
2023-05-05T22:46:29.514Z,13.93
2023-05-05T22:48:56.841Z,14.88
2023-05-05T22:51:23.824Z,15.35
2023-05-05T22:53:51.454Z,16.60
2023-05-05T22:56:18.611Z,16.43
2023-05-05T22:58:47.072Z,17.50
2023-05-05T23:01:14.370Z,18.50
2023-05-05T23:03:41.838Z,14.70
2023-05-05T23:06:09.746Z,12.60
2023-05-05T23:08:36.952Z,9.37
2023-05-05T23:11:03.925Z,9.13
2023-05-05T23:13:31.199Z,8.73
2023-05-05T23:15:58.107Z,8.85
2023-05-05T23:18:25.323Z,8.82
2023-05-05T23:20:52.235Z,9.87
2023-05-05T23:23:19.506Z,11.10
2023-05-05T23:25:46.645Z,8.15
2023-05-05T23:28:13.870Z,7.07
2023-05-05T23:30:40.850Z,11.23
2023-05-05T23:33:08.177Z,15.07
2023-05-05T23:35:35.141Z,22.17
2023-05-05T23:38:02.339Z,15.30
2023-05-05T23:40:29.276Z,13.25
2023-05-05T23:42:56.506Z,11.52
2023-05-05T23:45:23.392Z,9.87
2023-05-05T23:47:50.666Z,9.38
2023-05-05T23:50:17.538Z,8.23
2023-05-05T23:52:44.819Z,8.23
2023-05-05T23:55:11.997Z,9.13
2023-05-05T23:57:39.546Z,10.40
